createdAt,value
2022-12-04T00:04:01.451Z,7.83
2022-12-04T00:09:04.008Z,7.10
2022-12-04T00:14:07.562Z,8.03
2022-12-04T00:19:09.918Z,7.97
2022-12-04T00:24:12.452Z,8.17
2022-12-04T00:29:14.927Z,8.67
2022-12-04T00:34:17.091Z,7.50
2022-12-04T00:39:19.313Z,6.60
2022-12-04T00:44:21.427Z,7.90
2022-12-04T00:49:23.608Z,7.13
2022-12-04T00:54:25.756Z,8.90
2022-12-04T00:59:28.013Z,7.97
2022-12-04T01:04:30.252Z,7.97
2022-12-04T01:09:33.170Z,7.70
2022-12-04T01:14:35.346Z,8.00
2022-12-04T01:19:37.590Z,9.03
2022-12-04T01:24:39.732Z,7.30
2022-12-04T01:29:42.015Z,9.33
2022-12-04T01:34:44.294Z,7.10
2022-12-04T01:39:46.507Z,6.97
2022-12-04T01:45:33.676Z,7.73
2022-12-04T01:50:36.197Z,7.80
2022-12-04T01:55:38.981Z,7.17
2022-12-04T02:00:41.372Z,7.50
2022-12-04T02:05:43.626Z,7.20
2022-12-04T02:11:09.398Z,7.17
2022-12-04T02:16:51.830Z,6.07
2022-12-04T02:21:55.808Z,6.50
2022-12-04T02:27:25.059Z,5.67
2022-12-04T02:32:36.326Z,6.45
2022-12-04T02:37:41.759Z,5.77
2022-12-04T02:42:48.344Z,6.97
2022-12-04T02:47:51.875Z,5.50
2022-12-04T02:52:58.054Z,5.50
2022-12-04T02:58:05.457Z,5.67
2022-12-04T03:03:12.308Z,5.70
2022-12-04T03:08:19.043Z,6.40
2022-12-04T03:13:41.894Z,7.47
2022-12-04T03:18:50.884Z,6.43
2022-12-04T03:24:03.255Z,6.85
2022-12-04T03:29:13.418Z,6.37
2022-12-04T03:34:39.252Z,5.90
2022-12-04T03:39:50.473Z,6.27
2022-12-04T03:45:09.798Z,5.67
2022-12-04T03:50:25.078Z,5.18
2022-12-04T03:55:31.443Z,6.47
2022-12-04T04:00:37.432Z,6.07
2022-12-04T04:05:43.428Z,5.90
2022-12-04T04:10:45.912Z,5.27
2022-12-04T04:16:11.579Z,6.30
2022-12-04T04:21:33.830Z,6.03
2022-12-04T04:26:39.597Z,6.53
2022-12-04T04:31:59.521Z,4.97
2022-12-04T04:37:20.911Z,5.73
2022-12-04T04:42:26.841Z,6.13
2022-12-04T04:47:45.905Z,6.13
2022-12-04T04:52:51.572Z,6.13
2022-12-04T04:57:53.741Z,5.57
2022-12-04T05:02:55.932Z,7.47
2022-12-04T05:07:58.336Z,5.50
2022-12-04T05:13:00.569Z,6.17
2022-12-04T05:18:02.788Z,5.50
2022-12-04T05:23:04.974Z,6.43
2022-12-04T05:28:07.201Z,6.03
2022-12-04T05:33:10.466Z,6.33
2022-12-04T05:38:12.680Z,7.80
2022-12-04T05:43:14.963Z,5.17
2022-12-04T05:48:17.281Z,4.90
2022-12-04T05:53:19.578Z,4.30
2022-12-04T05:58:21.753Z,4.37
2022-12-04T06:03:24.119Z,5.47
2022-12-04T06:08:26.411Z,5.63
2022-12-04T06:13:28.675Z,5.60
2022-12-04T06:18:30.839Z,7.50
2022-12-04T06:23:32.980Z,4.87
2022-12-04T06:28:35.884Z,5.17
2022-12-04T06:33:38.249Z,6.20
2022-12-04T06:38:41.173Z,5.60
2022-12-04T06:43:43.499Z,4.67
2022-12-04T06:48:45.916Z,5.80
2022-12-04T06:53:48.426Z,5.03
2022-12-04T06:58:52.912Z,5.97
2022-12-04T07:03:56.826Z,4.90
2022-12-04T07:09:07.140Z,5.63
2022-12-04T07:14:10.412Z,4.60
2022-12-04T07:19:14.404Z,6.23
2022-12-04T07:24:17.735Z,5.73
2022-12-04T07:29:20.018Z,5.03
2022-12-04T07:34:22.160Z,6.40
2022-12-04T07:39:24.363Z,5.77
2022-12-04T07:44:26.656Z,5.83
2022-12-04T07:49:29.348Z,5.00
2022-12-04T07:54:31.607Z,3.10
2022-12-04T07:59:33.778Z,10.83
2022-12-04T08:04:37.240Z,6.47
2022-12-04T08:09:39.540Z,4.67
2022-12-04T08:14:41.678Z,5.10
2022-12-04T08:19:43.855Z,6.07
2022-12-04T08:24:46.021Z,4.40
2022-12-04T08:29:48.370Z,4.80
2022-12-04T08:34:55.702Z,4.43
2022-12-04T08:40:01.394Z,6.90
2022-12-04T08:45:06.140Z,5.83
2022-12-04T08:50:08.720Z,4.57
2022-12-04T08:55:10.912Z,5.70
2022-12-04T09:00:13.607Z,4.17
2022-12-04T09:05:15.959Z,4.47
2022-12-04T09:10:18.364Z,6.33
2022-12-04T09:15:20.611Z,5.20
2022-12-04T09:20:22.895Z,5.07
2022-12-04T09:25:25.091Z,4.33
2022-12-04T09:30:31.083Z,4.70
2022-12-04T09:35:34.316Z,3.97
2022-12-04T09:40:44.794Z,4.20
2022-12-04T09:45:51.062Z,3.90
2022-12-04T09:50:53.972Z,3.70
2022-12-04T09:55:59.935Z,4.25
2022-12-04T10:01:04.044Z,4.67
2022-12-04T10:06:16.043Z,3.67
2022-12-04T10:11:32.209Z,3.03
2022-12-04T10:16:41.178Z,3.67
2022-12-04T10:21:59.722Z,2.97
2022-12-04T10:27:09.299Z,2.87
2022-12-04T10:32:19.335Z,2.70
2022-12-04T10:37:22.916Z,2.73
2022-12-04T10:42:41.682Z,2.63
2022-12-04T10:47:46.997Z,3.00
2022-12-04T10:52:49.872Z,1.90
2022-12-04T10:57:52.192Z,3.33
2022-12-04T11:02:56.453Z,2.87
2022-12-04T11:08:00.855Z,3.00
2022-12-04T11:13:14.801Z,3.07
2022-12-04T11:18:28.908Z,2.47
2022-12-04T11:23:41.445Z,2.63
2022-12-04T11:28:53.066Z,3.37
2022-12-04T11:34:04.175Z,2.83
2022-12-04T11:39:28.002Z,2.50
2022-12-04T11:44:34.319Z,2.20
2022-12-04T11:49:42.244Z,2.70
2022-12-04T11:54:51.248Z,2.70
2022-12-04T12:00:03.981Z,2.60
2022-12-04T12:05:17.413Z,3.00
2022-12-04T12:10:25.749Z,2.07
2022-12-04T12:15:41.363Z,2.97
2022-12-04T12:20:54.308Z,3.17
2022-12-04T12:26:10.825Z,2.33
2022-12-04T12:31:38.178Z,2.53
2022-12-04T12:36:44.617Z,2.90
2022-12-04T12:42:00.466Z,2.90
2022-12-04T12:47:20.031Z,4.07
2022-12-04T12:52:43.806Z,3.75
2022-12-04T12:57:50.527Z,4.70
2022-12-04T13:03:29.055Z,3.60
2022-12-04T13:09:04.981Z,3.33
2022-12-04T13:14:07.607Z,4.27
2022-12-04T13:19:36.167Z,3.77
2022-12-04T13:24:56.823Z,3.90
2022-12-04T13:30:24.509Z,4.30
2022-12-04T13:36:17.956Z,3.30
2022-12-04T13:41:26.077Z,2.93
2022-12-04T13:46:38.501Z,3.10
2022-12-04T13:51:46.736Z,3.30
2022-12-04T13:56:51.854Z,3.23
2022-12-04T14:02:04.916Z,2.60
2022-12-04T14:07:33.467Z,2.73
2022-12-04T14:12:39.285Z,2.93
2022-12-04T14:17:44.762Z,3.07
2022-12-04T14:22:48.418Z,2.50
2022-12-04T14:27:53.944Z,2.53
2022-12-04T14:33:22.450Z,2.80
2022-12-04T14:38:25.937Z,2.03
2022-12-04T14:43:33.901Z,1.93
2022-12-04T14:48:38.905Z,2.60
2022-12-04T14:53:57.624Z,2.27
2022-12-04T14:59:06.226Z,2.08
2022-12-04T15:04:46.220Z,1.97
2022-12-04T15:10:12.205Z,1.88
2022-12-04T15:15:25.164Z,2.93
2022-12-04T15:20:33.383Z,2.07
2022-12-04T15:26:07.430Z,2.30
2022-12-04T15:31:19.709Z,2.80
2022-12-04T15:36:47.211Z,3.30
2022-12-04T15:41:50.049Z,2.53
2022-12-04T15:46:58.423Z,2.40
2022-12-04T15:52:17.032Z,2.42
2022-12-04T15:57:40.650Z,2.93
2022-12-04T16:02:43.951Z,3.23
2022-12-04T16:07:58.339Z,2.83
2022-12-04T16:13:03.191Z,3.33
2022-12-04T16:18:06.939Z,3.00
2022-12-04T16:23:09.854Z,2.30
2022-12-04T16:28:13.389Z,2.67
2022-12-04T16:33:16.085Z,3.40
2022-12-04T16:38:18.282Z,2.93
2022-12-04T16:43:20.538Z,3.47
2022-12-04T16:48:22.882Z,2.80
2022-12-04T16:53:25.157Z,2.77
2022-12-04T16:58:27.426Z,2.40
2022-12-04T17:03:37.187Z,3.40
2022-12-04T17:08:39.551Z,3.03
2022-12-04T17:13:42.189Z,3.13
2022-12-04T17:18:45.005Z,3.63
2022-12-04T17:23:47.383Z,3.03
2022-12-04T17:28:50.621Z,2.87
2022-12-04T17:33:53.066Z,2.90
2022-12-04T17:38:56.602Z,2.70
2022-12-04T17:44:00.376Z,2.43
2022-12-04T17:49:07.490Z,2.30
2022-12-04T17:54:13.067Z,2.97
2022-12-04T17:59:15.649Z,2.43
2022-12-04T18:04:19.411Z,3.60
2022-12-04T18:09:23.350Z,3.43
2022-12-04T18:14:25.818Z,3.27
2022-12-04T18:19:29.524Z,2.47
2022-12-04T18:24:31.742Z,3.57
2022-12-04T18:29:33.942Z,3.47
2022-12-04T18:34:36.210Z,2.80
2022-12-04T18:39:38.464Z,3.47
2022-12-04T18:44:42.999Z,3.33
2022-12-04T18:49:45.700Z,2.93
2022-12-04T18:54:47.918Z,3.40
2022-12-04T18:59:52.974Z,2.77
2022-12-04T19:04:55.458Z,3.30
2022-12-04T19:10:13.006Z,3.73
2022-12-04T19:15:15.288Z,2.40
2022-12-04T19:20:18.533Z,3.77
2022-12-04T19:25:20.749Z,3.57
2022-12-04T19:30:22.955Z,2.83
2022-12-04T19:35:25.173Z,2.83
2022-12-04T19:40:27.376Z,3.30
2022-12-04T19:45:29.586Z,3.00
2022-12-04T19:50:32.662Z,2.57
2022-12-04T19:55:36.676Z,2.27
2022-12-04T20:00:38.869Z,3.13
2022-12-04T20:05:41.989Z,2.80
2022-12-04T20:10:44.274Z,3.67
2022-12-04T20:15:46.498Z,3.17
2022-12-04T20:20:56.453Z,3.50
2022-12-04T20:26:05.400Z,3.13
2022-12-04T20:31:16.112Z,3.35
2022-12-04T20:36:20.124Z,3.07
2022-12-04T20:41:22.737Z,2.73
2022-12-04T20:46:31.783Z,2.97
2022-12-04T20:51:37.007Z,2.85
2022-12-04T20:56:39.318Z,3.17
2022-12-04T21:01:41.950Z,3.63
2022-12-04T21:06:44.907Z,3.90
2022-12-04T21:11:52.834Z,3.30
2022-12-04T21:16:55.013Z,3.33
2022-12-04T21:21:57.264Z,2.73
2022-12-04T21:26:59.533Z,3.00
2022-12-04T21:32:02.108Z,3.07
2022-12-04T21:37:04.482Z,3.33
2022-12-04T21:42:25.158Z,3.67
2022-12-04T21:47:28.135Z,3.43
2022-12-04T21:52:30.649Z,3.70
2022-12-04T21:57:32.757Z,3.10
2022-12-04T22:02:36.429Z,4.23
2022-12-04T22:07:38.789Z,3.80
2022-12-04T22:12:49.724Z,3.60
2022-12-04T22:17:53.309Z,4.03
2022-12-04T22:22:55.532Z,4.20
2022-12-04T22:27:58.356Z,3.87
2022-12-04T22:33:00.832Z,4.57
2022-12-04T22:38:03.041Z,4.57
2022-12-04T22:43:05.200Z,3.20
2022-12-04T22:48:07.329Z,4.10
2022-12-04T22:53:09.540Z,5.13
2022-12-04T22:58:11.644Z,3.00
2022-12-04T23:03:15.186Z,4.23
2022-12-04T23:08:17.569Z,3.27
2022-12-04T23:13:19.846Z,3.83
2022-12-04T23:18:22.013Z,4.00
2022-12-04T23:23:24.261Z,4.07
2022-12-04T23:28:26.557Z,3.37
2022-12-04T23:33:29.050Z,4.63
2022-12-04T23:38:31.555Z,4.50
2022-12-04T23:43:34.555Z,3.50
2022-12-04T23:48:40.911Z,3.23
2022-12-04T23:53:43.378Z,4.27
2022-12-04T23:58:46.840Z,3.93
